createdAt,value
2018-08-21T05:50:05.166Z,85.52
2018-08-21T05:51:05.417Z,85.91
2018-08-21T05:52:05.435Z,85.23
2018-08-21T05:53:05.433Z,85.23
2018-08-21T05:54:05.440Z,85.23
2018-08-21T05:55:05.444Z,85.42
2018-08-21T05:56:05.466Z,85.61
2018-08-21T05:57:05.182Z,85.23
2018-08-21T05:58:05.187Z,85.17
2018-08-21T05:59:05.456Z,84.59
2018-08-21T06:00:07.049Z,85.17
2018-08-21T06:01:05.195Z,84.59
2018-08-21T06:02:05.452Z,83.09
2018-08-21T06:03:05.448Z,80.05
2018-08-21T06:04:05.205Z,77.61
2018-08-21T06:05:06.260Z,75.13
2018-08-21T06:06:05.208Z,72.08
2018-08-21T06:07:05.467Z,71.44
2018-08-21T06:08:05.307Z,70.31
2018-08-21T06:09:05.486Z,69.43
2018-08-21T06:10:05.488Z,70.01
2018-08-21T06:11:05.229Z,70.5
2018-08-21T06:12:05.499Z,70.66
2018-08-21T06:13:05.491Z,71.14
2018-08-21T06:14:05.623Z,70.66
2018-08-21T06:15:05.246Z,70.76
2018-08-21T06:16:05.508Z,71.24
2018-08-21T06:17:05.258Z,71.82
2018-08-21T06:18:05.520Z,72.56
2018-08-21T06:19:05.292Z,72.95
2018-08-21T06:20:05.528Z,72.85
2018-08-21T06:21:05.273Z,72.85
2018-08-21T06:22:05.276Z,72.17
2018-08-21T06:23:05.535Z,72.46
2018-08-21T06:24:05.287Z,71.14
2018-08-21T06:25:05.290Z,69.15
2018-08-21T06:26:05.293Z,67.72
2018-08-21T06:27:05.561Z,66.5
2018-08-21T06:28:05.572Z,64.78
2018-08-21T06:29:05.577Z,62.81
2018-08-21T06:30:05.333Z,60.22
2018-08-21T06:31:05.583Z,59.38
2018-08-21T06:32:05.422Z,57.65
2018-08-21T06:33:05.585Z,57.29
2018-08-21T06:34:05.597Z,56.64
2018-08-21T06:35:05.603Z,54.62
2018-08-21T06:36:05.683Z,53.77
2018-08-21T06:37:05.609Z,53.87
2018-08-21T06:38:05.648Z,52.53
2018-08-21T06:39:05.368Z,52.66
2018-08-21T06:40:05.636Z,51.68
2018-08-21T06:41:05.650Z,52.66
2018-08-21T06:42:05.398Z,53.05
2018-08-21T06:43:05.654Z,51.78
2018-08-21T06:44:05.683Z,52.66
2018-08-21T06:45:05.417Z,51.58
2018-08-21T06:46:05.419Z,51.68
2018-08-21T06:47:05.420Z,51.65
2018-08-21T06:48:05.429Z,52.14
2018-08-21T06:49:05.700Z,51.87
2018-08-21T06:50:05.714Z,51.58
2018-08-21T06:51:05.454Z,51.21
2018-08-21T06:52:05.450Z,50.04
2018-08-21T06:53:05.514Z,50.14
2018-08-21T06:54:05.489Z,49.58
2018-08-21T06:55:05.481Z,48.41
2018-08-21T06:56:05.738Z,47.75
2018-08-21T06:57:05.759Z,46.62
2018-08-21T06:58:05.759Z,47.5
2018-08-21T06:59:05.516Z,46.99
2018-08-21T07:00:05.521Z,47.48
2018-08-21T07:01:05.525Z,47.28
2018-08-21T07:02:05.781Z,46.89
2018-08-21T07:03:05.786Z,46.99
2018-08-21T07:04:05.831Z,46.72
2018-08-21T07:05:05.542Z,46.14
2018-08-21T07:06:05.561Z,46.33
2018-08-21T07:07:05.823Z,47.58
2018-08-21T07:08:05.839Z,49
2018-08-21T07:09:05.847Z,49.66
2018-08-21T07:10:05.847Z,51.12
2018-08-21T07:11:05.849Z,51.39
2018-08-21T07:12:05.596Z,50.6
2018-08-21T07:13:05.606Z,50.97
2018-08-21T07:14:05.626Z,51.95
2018-08-21T07:15:05.889Z,52.92
2018-08-21T07:16:05.884Z,52.31
2018-08-21T07:17:05.893Z,52.02
2018-08-21T07:18:05.899Z,52.22
2018-08-21T07:19:05.935Z,52.5
2018-08-21T07:20:05.658Z,54.03
2018-08-21T07:21:05.696Z,54.11
2018-08-21T07:22:05.696Z,55.05
2018-08-21T07:23:05.941Z,55.54
2018-08-21T07:24:05.946Z,56
2018-08-21T07:25:05.946Z,57.07
2018-08-21T07:26:05.948Z,57.04
2018-08-21T07:27:05.967Z,57.72
2018-08-21T07:28:06.012Z,58.57
2018-08-21T07:29:06.150Z,58.67
2018-08-21T07:30:06.014Z,58.08
2018-08-21T07:31:05.720Z,58.18
2018-08-21T07:32:05.991Z,58.86
2018-08-21T07:33:05.990Z,58.76
2018-08-21T07:34:06.000Z,60.22
2018-08-21T07:35:05.754Z,60.31
2018-08-21T07:36:06.011Z,59.8
2018-08-21T07:37:06.044Z,60.19
2018-08-21T07:38:05.767Z,60.58
2018-08-21T07:39:05.786Z,60.84
2018-08-21T07:40:06.044Z,61.25
2018-08-21T07:41:05.774Z,61.35
2018-08-21T07:42:06.046Z,60.84
2018-08-21T07:43:06.052Z,61.07
2018-08-21T07:44:05.812Z,60.84
2018-08-21T07:45:06.120Z,61.04
2018-08-21T07:46:06.067Z,61.32
2018-08-21T07:47:06.081Z,61.32
2018-08-21T07:48:06.080Z,61.22
2018-08-21T07:49:06.091Z,60.94
2018-08-21T07:50:06.117Z,59.8
2018-08-21T07:51:06.339Z,60
2018-08-21T07:52:06.101Z,60
2018-08-21T07:53:06.090Z,59.8
2018-08-21T07:54:06.121Z,60.58
2018-08-21T07:55:05.873Z,60.68
2018-08-21T07:56:06.124Z,60.97
2018-08-21T07:57:06.133Z,60.64
2018-08-21T07:58:06.275Z,60.77
2018-08-21T07:59:05.888Z,60.97
2018-08-21T08:00:06.145Z,61.22
2018-08-21T08:01:06.144Z,62.01
2018-08-21T08:02:05.901Z,61.61
2018-08-21T08:03:06.161Z,61.42
2018-08-21T08:04:06.405Z,61.52
2018-08-21T08:05:05.910Z,62.07
2018-08-21T08:06:06.223Z,62.65
2018-08-21T08:07:06.189Z,62.65
2018-08-21T08:08:05.938Z,62.16
2018-08-21T08:09:05.948Z,61.81
2018-08-21T08:10:06.205Z,60.55
2018-08-21T08:11:06.192Z,60
2018-08-21T08:12:06.202Z,60.58
2018-08-21T08:13:06.221Z,59.8
2018-08-21T08:14:06.793Z,60
2018-08-21T08:15:06.222Z,60.48
2018-08-21T08:16:06.245Z,60.45
2018-08-21T08:17:05.973Z,59.31
2018-08-21T08:18:06.238Z,58.76
2018-08-21T08:19:06.509Z,58.76
2018-08-21T08:20:06.314Z,59.25
2018-08-21T08:21:07.047Z,58.5
2018-08-21T08:22:06.013Z,58.69
2018-08-21T08:23:06.435Z,56.97
2018-08-21T08:24:06.271Z,54.01
2018-08-21T08:25:06.274Z,53.85
2018-08-21T08:26:06.290Z,51.53
2018-08-21T08:27:06.030Z,51.46
2018-08-21T08:28:06.286Z,51.92
2018-08-21T08:29:06.493Z,51.73
2018-08-21T08:30:06.320Z,52.6
2018-08-21T08:31:06.307Z,51.34
2018-08-21T08:32:06.319Z,50.97
2018-08-21T08:33:06.112Z,50.87
2018-08-21T08:34:06.353Z,50.38
2018-08-21T08:35:06.341Z,50.97
2018-08-21T08:36:06.360Z,51.07
2018-08-21T08:37:06.095Z,51.63
2018-08-21T08:38:06.346Z,52.7
2018-08-21T08:39:06.362Z,53.81
2018-08-21T08:40:06.113Z,54.76
2018-08-21T08:41:06.111Z,55.35
2018-08-21T08:42:06.585Z,55.32
2018-08-21T08:43:06.383Z,55.9
2018-08-21T08:44:06.400Z,56.2
2018-08-21T08:45:06.145Z,56
2018-08-21T08:46:06.396Z,55.13
2018-08-21T08:47:06.404Z,56.49
2018-08-21T08:48:06.422Z,54.83
2018-08-21T08:49:06.166Z,55.32
2018-08-21T08:50:06.427Z,55.03
2018-08-21T08:51:06.175Z,54.74
2018-08-21T08:52:06.176Z,55.15
2018-08-21T08:53:06.446Z,55.54
2018-08-21T08:54:06.461Z,55.93
2018-08-21T08:55:06.205Z,56.39
2018-08-21T08:56:06.463Z,55.74
2018-08-21T08:57:06.222Z,57.1
2018-08-21T08:58:06.217Z,58.36
2018-08-21T08:59:06.233Z,55.44
2018-08-21T09:00:06.231Z,55.51
2018-08-21T09:01:06.499Z,55.71
2018-08-21T09:02:06.527Z,56.39
2018-08-21T09:03:06.515Z,55.61
2018-08-21T09:04:06.511Z,55.22
2018-08-21T09:05:06.329Z,56.59
2018-08-21T09:06:06.529Z,55.9
2018-08-21T09:07:06.272Z,54.15
2018-08-21T09:08:06.536Z,55.32
2018-08-21T09:09:06.293Z,55.03
2018-08-21T09:10:06.546Z,55.13
2018-08-21T09:11:06.548Z,55.61
2018-08-21T09:12:06.570Z,55.41
2018-08-21T09:13:06.308Z,54.54
2018-08-21T09:14:06.577Z,54.28
2018-08-21T09:15:06.576Z,54.38
2018-08-21T09:16:06.339Z,52.92
2018-08-21T09:17:06.589Z,53.2
2018-08-21T09:18:06.331Z,53.11
2018-08-21T09:19:06.347Z,53.01
2018-08-21T09:20:06.618Z,53.59
2018-08-21T09:21:06.604Z,53.11
2018-08-21T09:22:06.367Z,53.2
2018-08-21T09:23:06.610Z,53.11
2018-08-21T09:24:06.380Z,52.53
2018-08-21T09:25:06.634Z,52.14
2018-08-21T09:26:06.648Z,51.55
2018-08-21T09:27:06.396Z,51.58
2018-08-21T09:28:06.659Z,51.19
2018-08-21T09:29:06.651Z,51.19
2018-08-21T09:30:06.415Z,51.02
2018-08-21T09:31:06.665Z,52.94
2018-08-21T09:32:06.422Z,54.52
2018-08-21T09:33:06.673Z,53.65
2018-08-21T09:34:06.428Z,50.92
2018-08-21T09:35:06.692Z,52.09
2018-08-21T09:36:06.689Z,51.02
2018-08-21T09:37:06.436Z,51.29
2018-08-21T09:38:06.827Z,51.12
2018-08-21T09:39:06.708Z,51.48
2018-08-21T09:40:06.463Z,51.77
2018-08-21T09:41:06.728Z,54.11
2018-08-21T09:42:06.731Z,57.32
2018-08-21T09:43:06.742Z,58.26
2018-08-21T09:44:06.501Z,56.9
2018-08-21T09:45:06.482Z,52.62
2018-08-21T09:46:06.492Z,53.2
2018-08-21T09:47:06.551Z,53.89
2018-08-21T09:48:06.753Z,52.82
2018-08-21T09:49:06.767Z,53.11
2018-08-21T09:50:06.779Z,53.28
2018-08-21T09:51:06.823Z,54.57
2018-08-21T09:52:06.518Z,53.2
2018-08-21T09:53:06.794Z,52.82
2018-08-21T09:54:06.785Z,54.66
2018-08-21T09:55:06.549Z,54.79
2018-08-21T09:56:06.536Z,52.16
2018-08-21T09:57:06.551Z,51.31
2018-08-21T09:58:06.545Z,51.9
2018-08-21T09:59:06.570Z,51.21
2018-08-21T10:00:06.822Z,51.21
2018-08-21T10:01:06.825Z,51.04
2018-08-21T10:02:06.890Z,48.51
2018-08-21T10:03:06.837Z,48.22
2018-08-21T10:04:06.855Z,50.95
2018-08-21T10:05:06.602Z,50.63
2018-08-21T10:06:06.853Z,52.09
2018-08-21T10:07:06.863Z,50.63
2018-08-21T10:08:06.860Z,49.56
2018-08-21T10:09:06.865Z,49.66
2018-08-21T10:10:06.870Z,48.97
2018-08-21T10:11:06.617Z,49.46
2018-08-21T10:12:06.619Z,53.06
2018-08-21T10:13:06.874Z,53.94
2018-08-21T10:14:06.891Z,51.31
2018-08-21T10:15:06.636Z,53.38
2018-08-21T10:16:06.655Z,49.58
2018-08-21T10:17:06.655Z,48.22
2018-08-21T10:18:06.914Z,47.46
2018-08-21T10:19:06.947Z,47.46
2018-08-21T10:20:06.927Z,46.3
2018-08-21T10:21:06.932Z,46.51
2018-08-21T10:22:06.681Z,46.41
2018-08-21T10:23:06.941Z,49.73
2018-08-21T10:24:06.700Z,48.36
2018-08-21T10:25:06.951Z,47.29
2018-08-21T10:26:06.955Z,46.12
2018-08-21T10:27:06.709Z,45.25
2018-08-21T10:28:06.967Z,44.85
2018-08-21T10:29:06.972Z,44.73
2018-08-21T10:30:06.983Z,44.62
2018-08-21T10:31:06.727Z,45.2
2018-08-21T10:32:06.764Z,46.05
2018-08-21T10:33:07.007Z,48.68
2018-08-21T10:34:07.003Z,45.86
2018-08-21T10:35:07.151Z,45.86
2018-08-21T10:36:07.016Z,46.54
2018-08-21T10:37:07.020Z,48.19
2018-08-21T10:38:07.036Z,46.44
2018-08-21T10:39:07.028Z,48.1
2018-08-21T10:40:07.034Z,46.54
2018-08-21T10:41:07.050Z,45.1
2018-08-21T10:42:07.050Z,45.2
2018-08-21T10:43:07.065Z,45.76
2018-08-21T10:44:07.064Z,45.86
2018-08-21T10:45:07.068Z,45.2
2018-08-21T10:46:07.074Z,45.18
2018-08-21T10:47:07.078Z,45.47
2018-08-21T10:48:06.822Z,45.08
2018-08-21T10:49:06.835Z,45
2018-08-21T10:50:06.856Z,45.67
2018-08-21T10:51:07.091Z,45.37
2018-08-21T10:52:07.355Z,49.66
2018-08-21T10:53:07.103Z,48.29
2018-08-21T10:54:07.107Z,46.64
2018-08-21T10:55:07.127Z,46.64
2018-08-21T10:56:07.128Z,45.47
2018-08-21T10:57:07.127Z,45.1
2018-08-21T10:58:06.875Z,45.57
2018-08-21T10:59:06.876Z,45.68
2018-08-21T11:00:07.150Z,45.67
2018-08-21T11:01:07.154Z,45.57
2018-08-21T11:02:07.200Z,45.67
2018-08-21T11:03:07.177Z,45.95
2018-08-21T11:04:06.921Z,45.86
2018-08-21T11:05:07.175Z,49.37
2018-08-21T11:06:07.181Z,45.88
2018-08-21T11:07:07.178Z,46.17
2018-08-21T11:08:07.192Z,44.83
2018-08-21T11:09:06.941Z,43.76
2018-08-21T11:10:06.944Z,43.19
2018-08-21T11:11:07.211Z,43.1
2018-08-21T11:12:06.952Z,43.49
2018-08-21T11:13:06.955Z,43.29
2018-08-21T11:14:07.218Z,42.73
2018-08-21T11:15:06.972Z,42.14
2018-08-21T11:16:07.235Z,41.85
2018-08-21T11:17:06.992Z,42.05
2018-08-21T11:18:07.343Z,41.48
2018-08-21T11:19:06.991Z,42.07
2018-08-21T11:20:07.017Z,41.95
2018-08-21T11:21:07.056Z,42.14
2018-08-21T11:22:07.438Z,42.83
2018-08-21T11:23:07.022Z,43.29
2018-08-21T11:24:07.445Z,43.59
2018-08-21T11:25:07.036Z,43.98
2018-08-21T11:26:07.292Z,43.76
2018-08-21T11:27:07.312Z,44.15
2018-08-21T11:28:07.305Z,44.17
2018-08-21T11:29:07.303Z,44.07
2018-08-21T11:30:07.326Z,44.24
2018-08-21T11:31:07.328Z,44.37
2018-08-21T11:32:07.340Z,43.39
2018-08-21T11:33:07.337Z,42.54
2018-08-21T11:34:07.334Z,42.44
2018-08-21T11:35:07.099Z,42.93
2018-08-21T11:36:07.103Z,42.73
2018-08-21T11:37:07.359Z,42.63
2018-08-21T11:38:07.207Z,42.73
2018-08-21T11:39:07.374Z,42.16
2018-08-21T11:40:07.125Z,41.67
2018-08-21T11:41:07.377Z,41.7
2018-08-21T11:42:07.385Z,41.41
2018-08-21T11:43:07.158Z,41.21
2018-08-21T11:44:07.388Z,41.31
2018-08-21T11:45:07.419Z,41.89
2018-08-21T11:46:07.150Z,41.99
2018-08-21T11:47:07.159Z,41.42
2018-08-21T11:48:07.522Z,41.62
2018-08-21T11:49:07.422Z,40.37
2018-08-21T11:50:07.446Z,40.27
2018-08-21T11:51:07.181Z,41.44
2018-08-21T11:52:09.047Z,40.17
2018-08-21T11:53:07.213Z,40.45
2018-08-21T11:54:07.459Z,41.42
2018-08-21T11:55:07.474Z,41.41
2018-08-21T11:56:07.470Z,41.99
2018-08-21T11:57:07.716Z,45.7
2018-08-21T11:58:07.490Z,43.07
2018-08-21T11:59:07.499Z,42.07
2018-08-21T12:00:07.495Z,45.19
2018-08-21T12:01:07.508Z,42.58
2018-08-21T12:02:07.279Z,42.46
2018-08-21T12:03:07.253Z,43.53
2018-08-21T12:04:07.528Z,45.87
2018-08-21T12:05:07.656Z,45.75
2018-08-21T12:06:07.532Z,45.17
2018-08-21T12:07:07.535Z,44.95
2018-08-21T12:08:07.545Z,45.25
2018-08-21T12:09:07.691Z,44.66
2018-08-21T12:10:07.296Z,46.02
2018-08-21T12:11:07.566Z,45.05
2018-08-21T12:12:07.591Z,44.56
2018-08-21T12:13:07.571Z,44.56
2018-08-21T12:14:07.576Z,43.59
2018-08-21T12:15:07.327Z,46.53
2018-08-21T12:16:07.584Z,44.09
2018-08-21T12:17:07.595Z,42.73
2018-08-21T12:18:07.600Z,42.83
2018-08-21T12:19:07.340Z,42.34
2018-08-21T12:20:07.631Z,42.73
2018-08-21T12:21:07.628Z,42.51
2018-08-21T12:22:07.627Z,43
2018-08-21T12:23:07.624Z,42.8
2018-08-21T12:24:07.371Z,41.63
2018-08-21T12:25:07.645Z,42.12
2018-08-21T12:26:07.646Z,42.14
2018-08-21T12:27:07.648Z,41.36
2018-08-21T12:28:07.402Z,41.75
2018-08-21T12:29:07.693Z,41.95
2018-08-21T12:30:07.918Z,42.14
2018-08-21T12:31:07.669Z,43.02
2018-08-21T12:32:07.736Z,46.04
2018-08-21T12:33:07.714Z,41.75
2018-08-21T12:34:07.468Z,41.27
2018-08-21T12:35:07.439Z,41.07
2018-08-21T12:36:07.701Z,40.78
2018-08-21T12:37:07.459Z,40.48
2018-08-21T12:38:07.736Z,41.17
2018-08-21T12:39:07.728Z,41.17
2018-08-21T12:40:07.471Z,41.66
2018-08-21T12:41:07.472Z,41.66
2018-08-21T12:42:07.739Z,41.56
2018-08-21T12:43:07.742Z,41.19
2018-08-21T12:44:07.755Z,40.6
2018-08-21T12:45:07.498Z,40.7
2018-08-21T12:46:07.755Z,41.28
2018-08-21T12:47:07.760Z,41.19
2018-08-21T12:48:07.507Z,43.53
2018-08-21T12:49:07.529Z,42.94
2018-08-21T12:50:07.799Z,42.55
2018-08-21T12:51:07.794Z,41.41
2018-08-21T12:52:07.550Z,41.11
2018-08-21T12:53:07.812Z,41.5
2018-08-21T12:54:07.816Z,41.21
2018-08-21T12:55:07.868Z,41.31
2018-08-21T12:56:07.565Z,41.11
2018-08-21T12:57:07.822Z,40.94
2018-08-21T12:58:07.833Z,40.43
2018-08-21T12:59:07.845Z,40.82
2018-08-21T13:00:07.595Z,41.11
2018-08-21T13:01:07.863Z,41.19
2018-08-21T13:02:07.851Z,42.65
2018-08-21T13:03:07.621Z,42.07
2018-08-21T13:04:08.111Z,41.85
2018-08-21T13:05:07.887Z,41.85
2018-08-21T13:06:07.875Z,42.24
2018-08-21T13:07:07.624Z,41.36
2018-08-21T13:08:07.898Z,42.07
2018-08-21T13:09:07.894Z,41.19
2018-08-21T13:10:08.046Z,41.28
2018-08-21T13:11:07.912Z,41.19
2018-08-21T13:12:07.919Z,41.58
2018-08-21T13:13:07.932Z,41.28
2018-08-21T13:14:07.659Z,41.48
2018-08-21T13:15:07.687Z,41.46
2018-08-21T13:16:07.670Z,41.75
2018-08-21T13:17:07.941Z,41.66
2018-08-21T13:18:07.698Z,45.75
2018-08-21T13:19:07.963Z,42.05
2018-08-21T13:20:07.804Z,45.09
2018-08-21T13:21:07.712Z,43.61
2018-08-21T13:22:07.967Z,42.24
2018-08-21T13:23:07.979Z,43.12
2018-08-21T13:24:07.979Z,42.54
2018-08-21T13:25:08.048Z,42.14
2018-08-21T13:26:07.984Z,41.56
2018-08-21T13:27:07.990Z,41.66
2018-08-21T13:28:07.996Z,42.44
2018-08-21T13:29:08.026Z,41.95
2018-08-21T13:30:08.007Z,41.56
2018-08-21T13:31:07.765Z,41.46
2018-08-21T13:32:08.024Z,42.14
2018-08-21T13:33:08.022Z,41.46
2018-08-21T13:34:08.044Z,42.24
2018-08-21T13:35:08.144Z,44.38
2018-08-21T13:36:08.171Z,42.05
2018-08-21T13:37:08.250Z,41.66
2018-08-21T13:38:08.054Z,41.75
2018-08-21T13:39:08.075Z,43.32
2018-08-21T13:40:08.073Z,42.14
2018-08-21T13:41:08.073Z,41.75
2018-08-21T13:42:08.074Z,41.56
2018-08-21T13:43:08.078Z,41.17
2018-08-21T13:44:07.915Z,41.17
2018-08-21T13:45:07.967Z,40.88
2018-08-21T13:46:07.843Z,40.39
2018-08-21T13:47:08.098Z,40.6
2018-08-21T13:48:08.115Z,40.7
2018-08-21T13:49:08.119Z,40.7
2018-08-21T13:50:07.991Z,41.28
2018-08-21T13:51:08.121Z,41.28
2018-08-21T13:52:08.145Z,42.68
2018-08-21T13:53:08.144Z,40.14
2018-08-21T13:54:08.161Z,39.65
2018-08-21T13:55:08.010Z,40.43
2018-08-21T13:56:08.147Z,41.21
2018-08-21T13:57:07.909Z,40.43
2018-08-21T13:58:08.174Z,41.28
2018-08-21T13:59:07.938Z,43.63
2018-08-21T14:00:08.212Z,42.77
2018-08-21T14:01:08.176Z,39.84
2018-08-21T14:02:07.994Z,42.29
2018-08-21T14:03:07.944Z,41.21
2018-08-21T14:04:08.220Z,40.04
2018-08-21T14:05:08.218Z,39.84
2018-08-21T14:06:08.219Z,40.6
2018-08-21T14:07:07.962Z,39.55
2018-08-21T14:08:07.970Z,39.06
2018-08-21T14:09:08.239Z,39.16
2018-08-21T14:10:08.461Z,39.55
2018-08-21T14:11:08.267Z,39.14
2018-08-21T14:12:07.994Z,39.06
2018-08-21T14:13:08.434Z,39.33
2018-08-21T14:14:08.263Z,40.01
2018-08-21T14:15:08.369Z,39.92
2018-08-21T14:16:08.010Z,39.41
2018-08-21T14:17:08.276Z,39.8
2018-08-21T14:18:08.300Z,39.61
2018-08-21T14:19:08.298Z,39.7
2018-08-21T14:20:08.592Z,39.7
2018-08-21T14:21:08.305Z,41.07
2018-08-21T14:22:08.309Z,43.53
2018-08-21T14:23:08.376Z,44.51
2018-08-21T14:24:08.311Z,43.24
2018-08-21T14:25:08.519Z,42.16
2018-08-21T14:26:08.325Z,41.67
2018-08-21T14:27:08.076Z,45.39
2018-08-21T14:28:08.435Z,42.75
2018-08-21T14:29:08.512Z,39.62
2018-08-21T14:30:08.441Z,39.43
2018-08-21T14:31:08.356Z,39.23
2018-08-21T14:32:08.102Z,39.43
2018-08-21T14:33:08.357Z,39.82
2018-08-21T14:34:08.159Z,39.53
2018-08-21T14:35:08.154Z,40.01
2018-08-21T14:36:08.379Z,40.7
2018-08-21T14:37:08.384Z,40.21
2018-08-21T14:38:08.136Z,39.33
2018-08-21T14:39:08.527Z,40.89
2018-08-21T14:40:08.568Z,43.07
2018-08-21T14:41:08.411Z,44.14
2018-08-21T14:42:08.419Z,43.53
2018-08-21T14:43:08.165Z,42.46
2018-08-21T14:44:08.433Z,44.43
2018-08-21T14:45:08.591Z,43.14
2018-08-21T14:46:08.579Z,39.36
2018-08-21T14:47:08.439Z,39.62
2018-08-21T14:48:08.458Z,40.04
2018-08-21T14:49:08.475Z,39.26
2018-08-21T14:50:08.825Z,38.57
2018-08-21T14:51:08.538Z,39.26
2018-08-21T14:52:08.213Z,39.45
2018-08-21T14:53:08.650Z,41.03
2018-08-21T14:54:08.250Z,38.98
2018-08-21T14:55:08.491Z,40.16
2018-08-21T14:56:08.246Z,43.48
2018-08-21T14:57:08.505Z,42.01
2018-08-21T14:58:08.608Z,41.11
2018-08-21T14:59:08.257Z,40.01
2018-08-21T15:00:08.649Z,39.82
2018-08-21T15:01:08.560Z,40.21
2018-08-21T15:02:08.578Z,39.62
2018-08-21T15:03:08.551Z,39.72
2018-08-21T15:04:08.301Z,39.14
2018-08-21T15:05:08.384Z,40.5
2018-08-21T15:06:08.292Z,39.92
2018-08-21T15:07:08.579Z,39.23
2018-08-21T15:08:08.314Z,40.21
2018-08-21T15:09:08.307Z,39.33
2018-08-21T15:10:08.757Z,39.33
2018-08-21T15:11:08.663Z,38.84
2018-08-21T15:12:08.621Z,39.23
2018-08-21T15:13:08.590Z,39.04
2018-08-21T15:14:08.609Z,39.23
2018-08-21T15:15:08.640Z,40.21
2018-08-21T15:16:08.609Z,39.04
2018-08-21T15:17:08.610Z,38.84
2018-08-21T15:18:08.626Z,38.65
2018-08-21T15:19:08.645Z,39.04
2018-08-21T15:20:08.566Z,41.99
2018-08-21T15:21:08.636Z,44.53
2018-08-21T15:22:08.712Z,44.21
2018-08-21T15:23:09.457Z,41.19
2018-08-21T15:24:08.659Z,40.11
2018-08-21T15:25:08.525Z,40.21
2018-08-21T15:26:08.671Z,39.82
2018-08-21T15:27:08.410Z,37.87
2018-08-21T15:28:08.675Z,37.57
2018-08-21T15:29:08.708Z,37.77
2018-08-21T15:30:08.800Z,37.19
2018-08-21T15:31:08.686Z,37.4
2018-08-21T15:32:08.692Z,38.48
2018-08-21T15:33:08.748Z,37.57
2018-08-21T15:34:08.722Z,37.96
2018-08-21T15:35:08.658Z,39.84
2018-08-21T15:36:08.537Z,40.21
2018-08-21T15:37:08.750Z,39.33
2018-08-21T15:38:08.487Z,39.33
2018-08-21T15:39:08.882Z,37.87
2018-08-21T15:40:08.795Z,37.96
2018-08-21T15:41:08.803Z,38.84
2018-08-21T15:42:08.750Z,39.04
2018-08-21T15:43:08.547Z,38.84
2018-08-21T15:44:08.881Z,36.99
2018-08-21T15:45:08.907Z,36.99
2018-08-21T15:46:08.783Z,36.6
2018-08-21T15:47:08.555Z,36.82
2018-08-21T15:48:08.536Z,36.62
2018-08-21T15:49:08.559Z,37.29
2018-08-21T15:50:09.111Z,36.82
2018-08-21T15:51:08.844Z,36.82
2018-08-21T15:52:08.553Z,37.67
2018-08-21T15:53:08.861Z,36.51
2018-08-21T15:54:08.858Z,38.06
2018-08-21T15:55:08.891Z,38.48
2018-08-21T15:56:08.582Z,36.7
2018-08-21T15:57:08.579Z,37.38
2018-08-21T15:58:08.840Z,36.8
2018-08-21T15:59:08.614Z,36.7
2018-08-21T16:00:09.023Z,38.06
2018-08-21T16:01:08.856Z,36.31
2018-08-21T16:02:08.901Z,35.82
2018-08-21T16:03:08.608Z,35.72
2018-08-21T16:04:08.896Z,35.82
2018-08-21T16:05:08.917Z,38.57
2018-08-21T16:06:08.634Z,36.9
2018-08-21T16:07:08.896Z,36.6
2018-08-21T16:08:08.918Z,35.53
2018-08-21T16:09:08.990Z,38.65
2018-08-21T16:10:08.720Z,37.87
2018-08-21T16:11:09.014Z,37.87
2018-08-21T16:12:08.659Z,36.99
2018-08-21T16:13:08.924Z,38.94
2018-08-21T16:14:08.705Z,37.57
2018-08-21T16:15:09.200Z,37.48
2018-08-21T16:16:08.679Z,36.6
2018-08-21T16:17:08.956Z,36.51
2018-08-21T16:18:08.697Z,36.31
2018-08-21T16:19:09.089Z,36.31
2018-08-21T16:20:08.871Z,35.92
2018-08-21T16:21:08.967Z,35.74
2018-08-21T16:22:08.717Z,35.63
2018-08-21T16:23:09.039Z,36.21
2018-08-21T16:24:09.002Z,36.04
2018-08-21T16:25:09.149Z,36.62
2018-08-21T16:26:08.736Z,35.45
2018-08-21T16:27:08.800Z,35.25
2018-08-21T16:28:08.754Z,35.16
2018-08-21T16:29:09.023Z,34.96
2018-08-21T16:30:09.188Z,35.35
2018-08-21T16:31:09.019Z,35.45
2018-08-21T16:32:08.828Z,35.74
2018-08-21T16:33:09.279Z,35.74
2018-08-21T16:34:09.056Z,35.84
2018-08-21T16:35:09.148Z,36.52
2018-08-21T16:36:08.809Z,39.94
2018-08-21T16:37:09.052Z,37.19
2018-08-21T16:38:08.803Z,36.8
2018-08-21T16:39:09.971Z,36.6
2018-08-21T16:40:09.861Z,36.51
2018-08-21T16:41:09.087Z,36.41
2018-08-21T16:42:08.825Z,36.31
2018-08-21T16:43:09.084Z,36.02
2018-08-21T16:44:09.141Z,35.92
2018-08-21T16:45:09.203Z,39.82
2018-08-21T16:46:08.885Z,37.57
2018-08-21T16:47:08.847Z,36.58
2018-08-21T16:48:09.125Z,36.49
2018-08-21T16:49:09.119Z,37.85
2018-08-21T16:50:09.051Z,37.67
2018-08-21T16:51:09.145Z,39.43
2018-08-21T16:52:09.145Z,37.95
2018-08-21T16:53:09.154Z,40.19
2018-08-21T16:54:08.967Z,40.09
2018-08-21T16:55:08.968Z,39.31
2018-08-21T16:56:08.909Z,37.54
2018-08-21T16:57:09.260Z,38.32
2018-08-21T16:58:09.171Z,38.63
2018-08-21T16:59:09.179Z,41.36
2018-08-21T17:00:09.180Z,37.75
2018-08-21T17:01:09.419Z,38.32
2018-08-21T17:02:08.929Z,37.45
2018-08-21T17:03:08.943Z,37.05
2018-08-21T17:04:08.940Z,36.58
2018-08-21T17:05:09.376Z,36.58
2018-08-21T17:06:08.944Z,36.49
2018-08-21T17:07:08.971Z,36.68
2018-08-21T17:08:09.272Z,36.1
2018-08-21T17:09:10.031Z,41.56
2018-08-21T17:10:09.430Z,38.04
2018-08-21T17:11:08.995Z,37.46
2018-08-21T17:12:09.299Z,40.09
2018-08-21T17:13:09.241Z,39.31
2018-08-21T17:14:08.994Z,37.95
2018-08-21T17:15:09.266Z,38.42
2018-08-21T17:16:09.009Z,38.12
2018-08-21T17:17:09.309Z,38.42
2018-08-21T17:18:09.278Z,38.61
2018-08-21T17:19:09.278Z,38.43
2018-08-21T17:20:09.418Z,38.42
2018-08-21T17:21:09.298Z,38.04
2018-08-21T17:22:09.297Z,38.02
2018-08-21T17:23:09.299Z,39.31
2018-08-21T17:24:09.310Z,38.24
2018-08-21T17:25:09.327Z,38.43
2018-08-21T17:26:09.322Z,38.61
2018-08-21T17:27:09.059Z,38.51
2018-08-21T17:28:09.330Z,38.81
2018-08-21T17:29:09.329Z,38.71
2018-08-21T17:30:09.340Z,38.81
2018-08-21T17:31:09.355Z,38.71
2018-08-21T17:32:09.340Z,38.51
2018-08-21T17:33:09.377Z,38.61
2018-08-21T17:34:09.096Z,39
2018-08-21T17:35:09.468Z,39
2018-08-21T17:36:09.365Z,39.2
2018-08-21T17:37:09.110Z,39
2018-08-21T17:38:09.395Z,38.9
2018-08-21T17:39:09.378Z,38.81
2018-08-21T17:40:09.404Z,39.2
2018-08-21T17:41:09.125Z,39.1
2018-08-21T17:42:09.140Z,38.89
2018-08-21T17:43:09.403Z,39.39
2018-08-21T17:44:09.170Z,39.37
2018-08-21T17:45:09.227Z,39.2
2018-08-21T17:46:09.409Z,39.08
2018-08-21T17:47:09.166Z,39.2
2018-08-21T17:48:09.164Z,38.61
2018-08-21T17:49:09.442Z,38.89
2018-08-21T17:50:09.196Z,39.08
2018-08-21T17:51:09.429Z,38.69
2018-08-21T17:52:09.451Z,39.18
2018-08-21T17:53:09.443Z,38.79
2018-08-21T17:54:11.301Z,39.18
2018-08-21T17:55:09.458Z,38.98
2018-08-21T17:56:09.202Z,38.79
2018-08-21T17:57:09.464Z,38.89
2018-08-21T17:58:09.479Z,38.98
2018-08-21T17:59:09.476Z,38.98
2018-08-21T18:00:09.489Z,39.18
2018-08-21T18:01:09.229Z,39.18
2018-08-21T18:02:09.238Z,39.08
2018-08-21T18:03:09.496Z,39.37
2018-08-21T18:04:09.504Z,40.06
2018-08-21T18:05:09.514Z,39.75
2018-08-21T18:06:09.254Z,38.98
2018-08-21T18:07:09.526Z,40.03
2018-08-21T18:17:41.868Z,40.21
2018-08-21T18:18:42.093Z,40.11
2018-08-21T18:19:42.066Z,40.01
2018-08-21T18:20:41.816Z,40.11
2018-08-21T18:21:42.102Z,40.41
2018-08-21T18:22:42.078Z,40.01
2018-08-21T18:23:42.117Z,39.82
2018-08-21T18:24:42.174Z,39.82
2018-08-21T18:25:42.088Z,40.41
2018-08-21T18:26:41.844Z,40.48
2018-08-21T18:27:42.092Z,40.7
2018-08-21T18:28:42.099Z,41.65
2018-08-21T18:29:42.125Z,42.04
2018-08-21T18:30:42.154Z,41.26
2018-08-21T18:31:42.109Z,41.75
2018-08-21T18:32:41.870Z,41.75
2018-08-21T18:33:42.129Z,41.63
2018-08-21T18:34:41.869Z,43.38
2018-08-21T18:35:42.130Z,43.48
2018-08-21T18:36:41.879Z,45.91
2018-08-21T18:37:41.883Z,45.04
2018-08-21T18:38:42.141Z,44.43
2018-08-21T18:39:42.148Z,45.21
2018-08-21T18:40:42.159Z,46.86
2018-08-21T18:41:41.917Z,46.18
2018-08-21T18:42:41.907Z,45.5
2018-08-21T18:43:42.418Z,45.09
2018-08-21T18:44:42.193Z,44.51
2018-08-21T18:45:42.180Z,45.09
2018-08-21T18:46:41.936Z,45.09
2018-08-21T18:47:41.923Z,44.51
2018-08-21T18:48:42.199Z,44.99
2018-08-21T18:49:42.204Z,45.18
2018-08-21T18:50:42.197Z,44.97
2018-08-21T18:51:41.941Z,45.55
2018-08-21T18:52:41.964Z,45.75
2018-08-21T18:53:42.210Z,45.94
2018-08-21T18:54:42.214Z,45.84